»·PEaware :: N179CX KBFL-KSBP

N179CX :: KBFL-KSBP

FLIGHT INFORMATION

Flight Status: Arrived
Operator: Privately registered:
United States
More flights under this callsign
Pilot: Iain S. (20216)
Aircraft: PIPER PA-28 CHEROKEE ARCHER
(P28A)
More flights by this aircraft type
Origin: KBFL Meadows
United States
Destination: KSBP San Luis Co Regl
United States
More flights between these airports :: More routes between these airports
Route: +
File this flight plan on PilotEdge
Remarks:
Altitude:
(Current/Filed)
6,000ft
Speed:
(Current/Filed)
110kts
Departed: 30-Sep-18 02:06 PM
Arrived: 30-Sep-18 03:12 PM
Distance/Time
Traveled:
78nm/1:06
Distance/Time
To Go:
Arrived

Flight Plot

Page will automatically refresh every two minutes.


Map Options




Map Legend


Flown Route
Filed Route
Departure Airport
Arrival Airport
Navaid (VOR, NDB)
Fix

Horizontal Profiles

Position Reports

Time Latitude Longitude Heading Altitude Ground
Speed
30-Sep-18 13:51 35.435703 -119.052043 180 509ft 0kts
30-Sep-18 13:52 35.435703 -119.052043 179 509ft 0kts
30-Sep-18 13:53 35.435703 -119.052043 179 509ft 0kts
30-Sep-18 13:54 35.435703 -119.052043 179 509ft 0kts
30-Sep-18 13:55 35.435703 -119.052043 179 509ft 0kts
30-Sep-18 13:56 35.435703 -119.052043 179 509ft 0kts
30-Sep-18 13:57 35.435703 -119.052043 179 509ft 0kts
30-Sep-18 13:58 35.435703 -119.052043 179 509ft 0kts
30-Sep-18 13:59 35.435697 -119.052043 180 509ft 0kts
30-Sep-18 14:00 35.435484 -119.052737 265 509ft 7kts
30-Sep-18 14:01 35.433774 -119.053889 142 509ft 10kts
30-Sep-18 14:02 35.430809 -119.050309 135 509ft 18kts
30-Sep-18 14:03 35.427107 -119.045842 135 509ft 20kts
30-Sep-18 14:04 35.425717 -119.044761 229 509ft 0kts
30-Sep-18 14:05 35.425717 -119.044761 229 509ft 0kts
30-Sep-18 14:06 35.425717 -119.044761 229 509ft 0kts
30-Sep-18 14:07 35.425704 -119.044780 228 509ft 1kts
30-Sep-18 14:08 35.428856 -119.050145 314 533ft 70kts
30-Sep-18 14:09 35.442350 -119.066511 318 1327ft 70kts
30-Sep-18 14:10 35.453945 -119.082209 317 2070ft 67kts
30-Sep-18 14:11 35.461903 -119.100655 268 2827ft 68kts
30-Sep-18 14:12 35.461682 -119.121581 258 3564ft 64kts
30-Sep-18 14:13 35.460555 -119.141853 280 4249ft 61kts
30-Sep-18 14:14 35.462123 -119.162124 261 4882ft 62kts
30-Sep-18 14:15 35.452481 -119.180546 239 5473ft 67kts
30-Sep-18 14:16 35.443587 -119.199255 242 6023ft 69kts
30-Sep-18 14:17 35.433261 -119.225229 243 6140ft 99kts
30-Sep-18 14:18 35.420571 -119.256826 243 5985ft 110kts
30-Sep-18 14:19 35.407390 -119.289989 243 5890ft 111kts
30-Sep-18 14:20 35.394912 -119.320887 247 5948ft 107kts
30-Sep-18 14:21 35.387816 -119.353496 251 5903ft 110kts
30-Sep-18 14:22 35.379360 -119.385090 248 5970ft 97kts
30-Sep-18 14:23 35.369760 -119.416050 247 5977ft 101kts
30-Sep-18 14:24 35.359684 -119.446750 246 6040ft 98kts
30-Sep-18 14:25 35.349550 -119.476802 246 6046ft 99kts
30-Sep-18 14:26 35.338049 -119.508287 230 5960ft 103kts
30-Sep-18 14:27 35.319045 -119.532789 231 6028ft 97kts
30-Sep-18 14:28 35.305903 -119.554449 236 6091ft 97kts
30-Sep-18 14:29 35.288646 -119.588116 239 6010ft 102kts
30-Sep-18 14:30 35.275213 -119.617473 241 6076ft 97kts
30-Sep-18 14:31 35.263062 -119.646650 242 6126ft 95kts
30-Sep-18 14:32 35.257653 -119.659465 241 6118ft 99kts
30-Sep-18 14:33 35.249385 -119.680152 243 6076ft 103kts
30-Sep-18 14:34 35.239436 -119.713356 250 5984ft 95kts
30-Sep-18 14:35 35.235206 -119.732885 251 5974ft 93kts
30-Sep-18 14:36 35.235180 -119.733005 251 5974ft 93kts
30-Sep-18 14:37 35.231296 -119.762425 260 6080ft 91kts
30-Sep-18 14:38 35.228112 -119.793790 252 6065ft 97kts
30-Sep-18 14:39 35.222531 -119.831386 257 6055ft 97kts
30-Sep-18 14:40 35.218278 -119.858606 255 6014ft 98kts
30-Sep-18 14:41 35.212470 -119.888736 254 5997ft 96kts
30-Sep-18 14:42 35.206026 -119.917529 248 6027ft 94kts
30-Sep-18 14:43 35.201026 -119.944374 280 6017ft 104kts
30-Sep-18 14:44 35.199517 -119.975926 254 6100ft 95kts
30-Sep-18 14:45 35.192297 -120.007275 248 6018ft 99kts
30-Sep-18 14:46 35.183130 -120.037161 246 5977ft 97kts
30-Sep-18 14:47 35.173384 -120.066886 246 5966ft 95kts
30-Sep-18 14:48 35.163896 -120.095829 246 6008ft 93kts
30-Sep-18 14:49 35.154330 -120.125023 246 6046ft 94kts
30-Sep-18 14:50 35.146372 -120.155425 260 6053ft 97kts
30-Sep-18 14:51 35.136980 -120.184972 241 6058ft 95kts
30-Sep-18 14:52 35.134259 -120.217033 266 6068ft 98kts
30-Sep-18 14:53 35.135512 -120.251809 263 5762ft 110kts
30-Sep-18 14:54 35.131581 -120.289202 265 5339ft 112kts
30-Sep-18 14:55 35.136660 -120.326114 275 4956ft 115kts
30-Sep-18 14:56 35.137704 -120.363632 267 4429ft 112kts
30-Sep-18 14:57 35.136074 -120.399717 266 3867ft 109kts
30-Sep-18 14:58 35.134430 -120.436427 269 3285ft 112kts
30-Sep-18 14:59 35.141809 -120.471398 302 2680ft 112kts
30-Sep-18 15:00 35.158042 -120.503290 297 2106ft 106kts
30-Sep-18 15:01 35.146931 -120.525266 169 2157ft 114kts
30-Sep-18 15:02 35.149873 -120.505521 307 2178ft 92kts
30-Sep-18 15:03 35.136465 -120.519685 144 2405ft 106kts
30-Sep-18 15:04 35.146486 -120.506045 306 2376ft 93kts
30-Sep-18 15:05 35.131407 -120.514151 113 2344ft 124kts
30-Sep-18 15:06 35.149343 -120.507426 319 2297ft 90kts
30-Sep-18 15:07 35.168707 -120.524350 316 2414ft 84kts
30-Sep-18 15:08 35.184668 -120.545761 301 2392ft 93kts
30-Sep-18 15:09 35.197773 -120.570400 289 1853ft 86kts
30-Sep-18 15:10 35.208600 -120.590144 295 1315ft 61kts
30-Sep-18 15:11 35.217110 -120.605294 300 921ft 51kts
30-Sep-18 15:12 35.224966 -120.619414 299 618ft 53kts
30-Sep-18 15:13 35.233012 -120.633360 304 268ft 56kts
30-Sep-18 15:14 35.237445 -120.639905 7 214ft 7kts
30-Sep-18 15:15 35.237964 -120.638852 74 214ft 7kts

Navigation Log

Ident Type
1. KBFL Airport
2. KSBP Airport